Time;durP1;ratioP1;P1;durP2;ratioP2;P2;SDS_P1;SDS_P2;PMS_P1;PMS_P2;Temp;Humidity;BMP_temperature;BMP_pressure;BME280_temperature;BME280_humidity;BME280_pressure;Samples;Min_cycle;Max_cycle;Signal;HPM_P1;HPM_P2
2023/01/31 00:01:03;;;;;;;20.63;4.15;;;4.10;99.90;;;;;;4969596;28;20034;-61
2023/01/31 00:03:29;;;;;;;22.30;4.53;;;4.10;99.90;;;;;;4969291;28;20047;-62
2023/01/31 00:05:54;;;;;;;26.05;4.60;;;3.90;99.90;;;;;;4951586;28;20178;-59
2023/01/31 00:08:20;;;;;;;31.48;4.75;;;3.60;99.90;;;;;;4968126;28;20051;-62
2023/01/31 00:10:46;;;;;;;24.88;5.00;;;3.90;99.90;;;;;;4969628;28;20471;-61
2023/01/31 00:13:11;;;;;;;30.40;5.28;;;4.30;99.90;;;;;;4968143;28;20066;-61
2023/01/31 00:15:38;;;;;;;27.05;4.75;;;4.20;99.90;;;;;;4968206;28;20137;-61
2023/01/31 00:18:03;;;;;;;24.85;4.40;;;3.90;99.90;;;;;;4968029;28;20616;-62
2023/01/31 00:20:29;;;;;;;22.02;4.18;;;3.70;99.90;;;;;;4968438;28;20065;-62
2023/01/31 00:22:55;;;;;;;29.55;4.60;;;3.90;99.90;;;;;;4968370;28;20039;-60
2023/01/31 00:25:20;;;;;;;24.27;4.28;;;3.60;99.90;;;;;;4968643;28;20511;-62
2023/01/31 00:27:46;;;;;;;26.88;4.50;;;3.70;99.90;;;;;;4968577;28;20049;-62
2023/01/31 00:30:12;;;;;;;22.30;4.22;;;3.70;99.90;;;;;;4968705;28;20082;-61
2023/01/31 00:32:37;;;;;;;30.00;4.72;;;3.10;99.90;;;;;;4969546;28;20034;-61
2023/01/31 00:35:03;;;;;;;45.20;5.70;;;3.80;99.90;;;;;;4969135;28;20051;-62
2023/01/31 00:37:29;;;;;;;25.75;4.07;;;3.00;99.90;;;;;;4969087;28;20109;-62
2023/01/31 00:39:55;;;;;;;29.58;4.13;;;3.80;99.90;;;;;;4969817;28;20049;-62
2023/01/31 00:42:21;;;;;;;20.05;4.03;;;3.50;99.90;;;;;;4968590;28;20043;-61
2023/01/31 00:44:46;;;;;;;22.88;4.22;;;3.00;99.90;;;;;;4951959;28;20050;-62
2023/01/31 00:47:12;;;;;;;24.90;3.80;;;3.00;99.90;;;;;;4979485;28;20038;-62
2023/01/31 00:49:37;;;;;;;31.30;5.07;;;3.90;99.90;;;;;;4968608;28;20503;-62
2023/01/31 00:52:03;;;;;;;29.23;4.95;;;3.10;99.90;;;;;;4969124;28;20047;-62
2023/01/31 00:54:29;;;;;;;23.27;4.88;;;3.60;99.90;;;;;;4968503;28;20078;-59
2023/01/31 00:56:54;;;;;;;24.70;4.70;;;3.70;99.90;;;;;;4968551;28;20555;-61
2023/01/31 00:59:20;;;;;;;23.23;4.10;;;3.50;99.90;;;;;;4969088;28;20126;-62
2023/01/31 01:01:46;;;;;;;24.95;4.18;;;3.20;99.90;;;;;;4968683;28;20043;-60
2023/01/31 01:04:11;;;;;;;20.40;3.83;;;3.60;99.90;;;;;;4983983;28;20099;-62
2023/01/31 01:06:40;;;;;;;24.60;4.40;;;2.80;99.90;;;;;;4969140;28;20470;-61
2023/01/31 01:09:06;;;;;;;25.00;3.47;;;3.60;99.90;;;;;;4968708;28;20493;-59
2023/01/31 01:11:33;;;;;;;25.35;4.20;;;2.80;99.90;;;;;;4967734;28;20062;-61
2023/01/31 01:13:59;;;;;;;22.05;3.78;;;3.60;99.90;;;;;;4968839;28;20039;-62
2023/01/31 01:16:33;;;;;;;24.50;4.25;;;4.20;99.90;;;;;;4968884;28;20055;-62
2023/01/31 01:19:01;;;;;;;21.50;4.43;;;3.30;99.90;;;;;;4968720;28;20042;-62
2023/01/31 01:21:29;;;;;;;27.17;4.68;;;3.10;99.90;;;;;;4952039;28;20077;-61
2023/01/31 01:23:57;;;;;;;23.75;3.90;;;3.50;99.90;;;;;;4968716;28;20488;-61
2023/01/31 01:26:26;;;;;;;25.35;4.10;;;3.80;99.90;;;;;;4951121;28;20054;-61
2023/01/31 01:28:54;;;;;;;24.20;4.00;;;3.00;99.90;;;;;;4968537;28;20169;-62
2023/01/31 01:31:20;;;;;;;26.35;4.72;;;3.50;99.90;;;;;;4968294;28;20050;-60
2023/01/31 01:33:47;;;;;;;21.25;3.70;;;3.70;99.90;;;;;;4968741;28;20043;-62
2023/01/31 01:36:16;;;;;;;27.95;4.28;;;3.50;99.90;;;;;;4968411;28;20093;-62
2023/01/31 01:38:44;;;;;;;18.05;3.72;;;3.10;99.90;;;;;;4967883;28;20043;-59
2023/01/31 01:41:11;;;;;;;21.58;4.15;;;3.60;99.90;;;;;;4968327;28;20062;-62
2023/01/31 01:43:55;;;;;;;25.25;4.30;;;3.20;99.90;;;;;;4968368;28;20089;-61
2023/01/31 01:46:20;;;;;;;19.65;3.80;;;2.60;99.90;;;;;;4975340;28;20086;-61
2023/01/31 01:48:49;;;;;;;23.10;3.63;;;3.60;99.90;;;;;;4971641;28;20089;-61
2023/01/31 01:51:18;;;;;;;20.73;2.78;;;3.20;99.90;;;;;;4968060;28;20042;-61
2023/01/31 01:53:47;;;;;;;13.18;2.83;;;3.10;99.90;;;;;;4967728;28;20055;-62
2023/01/31 01:56:20;;;;;;;29.50;3.63;;;3.10;99.90;;;;;;4968245;28;20038;-61
2023/01/31 01:59:08;;;;;;;20.20;3.90;;;2.50;99.90;;;;;;4968183;28;20097;-60
2023/01/31 02:01:36;;;;;;;20.90;3.53;;;3.40;99.90;;;;;;4971281;28;20457;-59
2023/01/31 02:04:05;;;;;;;21.30;3.85;;;3.50;99.90;;;;;;4971923;28;20506;-61
2023/01/31 02:06:31;;;;;;;21.55;3.97;;;3.10;99.90;;;;;;4954224;28;20390;-58
2023/01/31 02:08:57;;;;;;;20.40;3.40;;;2.60;99.90;;;;;;4972302;28;20051;-62
2023/01/31 02:11:29;;;;;;;24.80;4.18;;;2.40;99.90;;;;;;4971103;28;20129;-61
2023/01/31 02:14:04;;;;;;;21.77;3.88;;;3.10;99.90;;;;;;4971831;28;20046;-62
2023/01/31 02:16:30;;;;;;;23.13;4.35;;;2.80;99.90;;;;;;4951425;29;20070;-62
2023/01/31 02:18:56;;;;;;;22.80;4.30;;;3.20;99.90;;;;;;4952313;28;20051;-61
2023/01/31 02:21:37;;;;;;;19.08;3.47;;;2.60;99.90;;;;;;4952818;28;20424;-61
2023/01/31 02:24:08;;;;;;;18.77;3.50;;;3.00;99.90;;;;;;4952876;29;20051;-62
2023/01/31 02:26:59;;;;;;;23.42;4.07;;;3.20;99.90;;;;;;4950431;29;20134;-61
2023/01/31 02:29:52;;;;;;;22.23;3.65;;;2.70;99.90;;;;;;4952555;28;20043;-62
2023/01/31 02:32:46;;;;;;;16.83;2.63;;;3.30;99.90;;;;;;4952605;28;20054;-61
2023/01/31 02:35:26;;;;;;;22.50;3.60;;;2.90;99.90;;;;;;4951578;29;20074;-62
2023/01/31 02:38:19;;;;;;;19.33;3.33;;;3.20;99.90;;;;;;4951712;29;20150;-58
2023/01/31 02:41:06;;;;;;;16.75;2.97;;;3.60;99.90;;;;;;4952581;28;20114;-58
2023/01/31 02:46:51;;;;;;;20.58;3.15;;;3.60;99.90;;;;;;4962943;28;20054;-62
2023/01/31 02:49:33;;;;;;;15.68;2.60;;;3.10;99.90;;;;;;4952135;29;20655;-62
2023/01/31 02:52:25;;;;;;;19.55;3.35;;;3.70;99.90;;;;;;4952468;28;20385;-61
2023/01/31 02:57:48;;;;;;;17.05;2.88;;;3.60;99.90;;;;;;4951285;28;20047;-62
2023/01/31 03:00:14;;;;;;;13.82;2.40;;;3.60;99.90;;;;;;4951762;28;20039;-62
2023/01/31 03:02:39;;;;;;;19.25;2.65;;;4.00;99.90;;;;;;4951952;29;20099;-62
2023/01/31 03:05:05;;;;;;;18.88;3.38;;;3.90;99.90;;;;;;4952339;28;20078;-61
2023/01/31 03:07:36;;;;;;;20.40;3.35;;;3.00;99.90;;;;;;4952185;28;20043;-61
2023/01/31 03:10:28;;;;;;;22.58;3.40;;;3.60;99.90;;;;;;4952272;28;20086;-62
2023/01/31 03:12:56;;;;;;;19.48;2.95;;;3.20;99.90;;;;;;4950117;28;20047;-61
2023/01/31 03:18:38;;;;;;;21.27;2.58;;;3.70;99.90;;;;;;4970559;28;20554;-62
2023/01/31 03:21:18;;;;;;;18.95;3.50;;;3.70;99.90;;;;;;4971487;28;20393;-61
2023/01/31 03:23:48;;;;;;;19.80;2.90;;;3.70;99.90;;;;;;4970778;28;20105;-62
2023/01/31 03:26:15;;;;;;;15.20;2.85;;;3.70;99.90;;;;;;4952618;28;20204;-61
2023/01/31 03:28:42;;;;;;;16.73;3.05;;;3.30;99.90;;;;;;4970495;28;20054;-61
2023/01/31 03:31:18;;;;;;;26.30;3.60;;;2.90;99.90;;;;;;4970879;28;20388;-62
2023/01/31 03:33:49;;;;;;;18.25;2.78;;;3.70;99.90;;;;;;4970762;28;20539;-60
2023/01/31 03:37:01;;;;;;;21.25;3.17;;;3.00;99.90;;;;;;4970448;28;20518;-62
2023/01/31 03:39:53;;;;;;;19.75;3.45;;;3.70;99.90;;;;;;4970730;28;20046;-60
2023/01/31 03:42:30;;;;;;;17.60;2.60;;;3.10;99.90;;;;;;4968741;28;20142;-56
2023/01/31 03:45:05;;;;;;;16.58;2.70;;;3.10;99.90;;;;;;4971006;28;20361;-60
2023/01/31 03:47:52;;;;;;;13.35;2.33;;;3.90;99.90;;;;;;4979420;28;20185;-62
2023/01/31 03:50:27;;;;;;;13.95;2.40;;;3.20;99.90;;;;;;4970107;28;20065;-62
2023/01/31 03:53:21;;;;;;;17.40;3.17;;;3.20;99.90;;;;;;4952612;28;20592;-60
2023/01/31 03:56:14;;;;;;;16.63;3.15;;;3.30;99.90;;;;;;4970027;28;20050;-62
2023/01/31 03:58:46;;;;;;;18.90;3.10;;;3.50;99.90;;;;;;4970197;28;20051;-62
2023/01/31 04:01:14;;;;;;;17.45;3.10;;;3.80;99.90;;;;;;4970360;28;20065;-58
2023/01/31 04:03:50;;;;;;;14.13;2.42;;;3.80;99.90;;;;;;4969969;28;20074;-61
2023/01/31 04:06:16;;;;;;;22.90;3.38;;;3.40;99.90;;;;;;4969855;28;20460;-62
2023/01/31 04:08:42;;;;;;;11.90;2.40;;;3.50;99.90;;;;;;4969986;28;20043;-58
2023/01/31 04:11:11;;;;;;;19.30;3.53;;;4.00;99.90;;;;;;4969598;28;20055;-59
2023/01/31 04:13:37;;;;;;;18.80;3.28;;;3.60;99.90;;;;;;4970413;28;20047;-62
2023/01/31 04:16:03;;;;;;;17.55;2.97;;;3.40;99.90;;;;;;4969849;28;20055;-62
2023/01/31 04:18:29;;;;;;;15.63;2.75;;;4.10;99.90;;;;;;4969282;28;20496;-62
2023/01/31 04:20:55;;;;;;;11.52;2.70;;;4.10;99.90;;;;;;4969205;28;20057;-59
2023/01/31 04:23:21;;;;;;;16.42;2.47;;;3.40;99.90;;;;;;4968258;28;20042;-62
2023/01/31 04:25:46;;;;;;;15.95;3.63;;;4.20;99.90;;;;;;4969203;28;20058;-62
2023/01/31 04:28:12;;;;;;;18.45;2.83;;;3.60;99.90;;;;;;4969002;28;20047;-62
2023/01/31 04:30:37;;;;;;;19.25;3.50;;;4.20;99.90;;;;;;4969449;28;20077;-60
2023/01/31 04:33:03;;;;;;;18.40;3.08;;;3.90;99.90;;;;;;4968966;28;20074;-62
2023/01/31 04:35:29;;;;;;;19.58;3.58;;;3.70;99.90;;;;;;4968161;28;20542;-62
2023/01/31 04:37:54;;;;;;;19.25;4.20;;;4.30;99.90;;;;;;4952365;28;20046;-62
2023/01/31 04:40:20;;;;;;;16.98;3.15;;;4.30;99.90;;;;;;4969251;28;20182;-61
2023/01/31 04:42:46;;;;;;;17.25;3.13;;;3.50;99.90;;;;;;4968175;28;20094;-61
2023/01/31 04:45:12;;;;;;;19.50;3.72;;;4.10;99.90;;;;;;4971588;28;20039;-62
2023/01/31 04:47:38;;;;;;;20.25;3.10;;;3.60;99.90;;;;;;4960735;28;20385;-62
2023/01/31 04:50:04;;;;;;;13.45;2.58;;;4.10;99.90;;;;;;4951413;28;20127;-62
2023/01/31 04:52:30;;;;;;;23.83;3.95;;;4.20;99.90;;;;;;4969080;28;20054;-60
2023/01/31 04:54:55;;;;;;;17.20;3.30;;;4.10;99.90;;;;;;4969086;28;20042;-62
2023/01/31 04:57:21;;;;;;;15.38;2.95;;;3.80;99.90;;;;;;4968131;28;20050;-62
2023/01/31 04:59:49;;;;;;;24.17;3.95;;;3.90;99.90;;;;;;4951894;28;20038;-56
2023/01/31 05:02:14;;;;;;;20.70;3.72;;;3.60;99.90;;;;;;4968811;28;20082;-61
2023/01/31 05:04:40;;;;;;;18.75;3.55;;;4.40;99.90;;;;;;4969414;28;20075;-61
2023/01/31 05:07:06;;;;;;;20.27;3.85;;;4.30;99.90;;;;;;4968657;28;20047;-62
2023/01/31 05:09:31;;;;;;;25.30;4.40;;;4.30;99.90;;;;;;4969211;28;20078;-58
2023/01/31 05:11:57;;;;;;;18.70;3.90;;;4.10;99.90;;;;;;4968024;28;20053;-62
2023/01/31 05:14:23;;;;;;;21.90;3.85;;;4.20;99.90;;;;;;4968470;28;20126;-61
2023/01/31 05:16:48;;;;;;;28.50;4.80;;;3.90;99.90;;;;;;4968300;28;20062;-60
2023/01/31 05:19:14;;;;;;;23.58;4.43;;;4.50;99.90;;;;;;4951618;28;20476;-62
2023/01/31 05:21:59;;;;;;;20.27;3.72;;;5.00;99.90;;;;;;4968547;28;20407;-62
2023/01/31 05:24:32;;;;;;;21.77;5.20;;;4.50;99.90;;;;;;4969045;28;20423;-62
2023/01/31 05:27:00;;;;;;;27.13;5.07;;;3.60;99.90;;;;;;4967772;28;20046;-62
2023/01/31 05:29:30;;;;;;;21.75;4.68;;;3.70;99.90;;;;;;4968795;28;20035;-61
2023/01/31 05:31:57;;;;;;;19.00;4.30;;;4.70;99.90;;;;;;4969072;28;20070;-61
2023/01/31 05:34:24;;;;;;;22.48;4.05;;;4.60;99.90;;;;;;4968163;28;20125;-62
2023/01/31 05:36:53;;;;;;;20.00;4.85;;;3.70;99.90;;;;;;4968722;28;20047;-62
2023/01/31 05:39:19;;;;;;;20.88;4.28;;;4.80;99.90;;;;;;4951331;28;20055;-62
2023/01/31 05:41:44;;;;;;;19.58;4.60;;;4.30;99.90;;;;;;4967836;28;20039;-61
2023/01/31 05:44:10;;;;;;;19.48;4.13;;;3.90;99.90;;;;;;4968660;28;20058;-61
2023/01/31 05:46:36;;;;;;;22.60;4.88;;;3.90;99.90;;;;;;4978136;28;20046;-62
2023/01/31 05:49:02;;;;;;;27.35;5.22;;;4.40;99.90;;;;;;4952507;28;20197;-62
2023/01/31 05:51:28;;;;;;;23.60;4.70;;;4.00;99.90;;;;;;4968083;28;20071;-62
2023/01/31 05:53:53;;;;;;;20.58;4.63;;;4.30;99.90;;;;;;4934661;28;20125;-61
2023/01/31 05:56:20;;;;;;;21.05;4.25;;;4.00;99.90;;;;;;4967864;28;20662;-62
2023/01/31 05:58:49;;;;;;;23.63;4.03;;;4.70;99.90;;;;;;4967851;28;20081;-60
2023/01/31 06:01:19;;;;;;;28.58;4.30;;;3.90;99.90;;;;;;4968015;28;20083;-59
2023/01/31 06:03:44;;;;;;;22.48;4.80;;;4.90;99.90;;;;;;4968679;28;20066;-58
2023/01/31 06:06:11;;;;;;;24.30;4.93;;;3.90;99.90;;;;;;4950852;28;20511;-62
2023/01/31 06:08:36;;;;;;;20.67;5.13;;;5.20;99.90;;;;;;4968068;28;20038;-62
2023/01/31 06:11:03;;;;;;;21.48;4.75;;;4.30;99.90;;;;;;4967636;28;20178;-59
2023/01/31 06:13:30;;;;;;;23.17;4.25;;;4.30;99.90;;;;;;4967296;28;20047;-56
2023/01/31 06:15:56;;;;;;;28.17;5.47;;;5.00;99.90;;;;;;4967543;28;20055;-62
2023/01/31 06:18:22;;;;;;;20.23;4.57;;;4.70;99.90;;;;;;4967793;28;20058;-61
2023/01/31 06:20:47;;;;;;;23.33;4.57;;;4.90;99.90;;;;;;4967689;28;20142;-61
2023/01/31 06:23:13;;;;;;;21.00;4.60;;;4.20;99.90;;;;;;4968333;28;20137;-62
2023/01/31 06:25:39;;;;;;;17.33;4.47;;;5.40;99.90;;;;;;4967209;28;20043;-59
2023/01/31 06:28:04;;;;;;;22.92;5.18;;;5.10;99.90;;;;;;4967744;28;20118;-62
2023/01/31 06:30:30;;;;;;;25.70;4.82;;;4.40;99.90;;;;;;4967468;28;20133;-57
2023/01/31 06:32:59;;;;;;;23.98;5.00;;;4.40;99.90;;;;;;4967603;28;20046;-61
2023/01/31 06:35:25;;;;;;;24.25;5.22;;;4.50;99.90;;;;;;4968075;28;20038;-62
2023/01/31 06:37:50;;;;;;;24.08;4.57;;;5.10;99.90;;;;;;4967886;28;20053;-61
2023/01/31 06:40:16;;;;;;;24.15;6.15;;;4.70;99.90;;;;;;4968557;28;20743;-62
2023/01/31 06:42:42;;;;;;;31.50;6.45;;;4.70;99.90;;;;;;4966998;28;20130;-61
2023/01/31 06:45:08;;;;;;;29.83;6.22;;;4.50;99.90;;;;;;4969441;28;20079;-61
2023/01/31 06:47:34;;;;;;;24.23;5.78;;;5.40;99.90;;;;;;4977971;28;20042;-61
2023/01/31 06:49:59;;;;;;;25.30;5.85;;;5.10;99.90;;;;;;4971455;28;20572;-62
2023/01/31 06:52:25;;;;;;;22.55;5.65;;;5.20;99.90;;;;;;4971441;28;20086;-62
2023/01/31 06:54:50;;;;;;;26.88;6.00;;;5.30;99.90;;;;;;4971302;28;20046;-62
2023/01/31 06:57:16;;;;;;;28.95;6.07;;;5.50;99.90;;;;;;4953324;28;20042;-59
2023/01/31 06:59:42;;;;;;;32.38;6.47;;;5.40;99.90;;;;;;4988166;28;20698;-60
2023/01/31 07:02:10;;;;;;;31.20;6.13;;;4.80;99.90;;;;;;4990218;28;20549;-61
2023/01/31 07:04:35;;;;;;;31.13;6.68;;;5.60;99.90;;;;;;4973228;28;20046;-57
2023/01/31 07:07:01;;;;;;;24.90;6.05;;;5.70;99.90;;;;;;4990337;28;20387;-61
2023/01/31 07:09:27;;;;;;;24.75;5.57;;;5.60;99.90;;;;;;4990191;28;20093;-62
2023/01/31 07:11:53;;;;;;;20.85;5.90;;;5.80;99.90;;;;;;4972270;28;20481;-59
2023/01/31 07:14:18;;;;;;;28.92;6.85;;;5.00;99.90;;;;;;4990244;28;20177;-58
2023/01/31 07:16:44;;;;;;;20.05;4.75;;;4.90;99.90;;;;;;4973109;28;20122;-62
2023/01/31 07:19:10;;;;;;;34.40;5.93;;;5.60;99.90;;;;;;4989890;28;20050;-61
2023/01/31 07:21:35;;;;;;;20.60;5.70;;;5.80;99.90;;;;;;4990096;28;20046;-62
2023/01/31 07:24:02;;;;;;;23.77;5.32;;;5.40;99.90;;;;;;4990331;28;20057;-62
2023/01/31 07:26:28;;;;;;;26.17;6.50;;;5.90;99.90;;;;;;4989133;28;20082;-62
2023/01/31 07:28:53;;;;;;;29.60;5.32;;;5.00;99.90;;;;;;4990742;28;20145;-63
2023/01/31 07:31:19;;;;;;;21.20;4.97;;;5.30;99.90;;;;;;4990602;28;20050;-61
2023/01/31 07:33:45;;;;;;;23.15;5.60;;;5.00;99.90;;;;;;4990426;28;20039;-63
2023/01/31 07:36:13;;;;;;;23.33;5.15;;;5.50;99.90;;;;;;4990172;28;20177;-62
2023/01/31 07:38:40;;;;;;;24.88;5.25;;;5.40;99.90;;;;;;4990075;28;20328;-62
2023/01/31 07:41:07;;;;;;;22.05;5.25;;;5.40;99.90;;;;;;4988961;28;20072;-63
2023/01/31 07:43:33;;;;;;;26.60;5.72;;;5.20;99.90;;;;;;4989806;28;20042;-62
2023/01/31 07:45:59;;;;;;;18.08;4.47;;;5.00;99.90;;;;;;4983226;28;20169;-62
2023/01/31 07:48:25;;;;;;;21.52;5.10;;;5.30;99.90;;;;;;4976272;28;20478;-61
2023/01/31 07:50:57;;;;;;;17.13;4.47;;;5.50;99.90;;;;;;4969911;28;20046;-60
2023/01/31 07:53:23;;;;;;;17.83;4.18;;;5.70;99.90;;;;;;4970032;28;20657;-63
2023/01/31 07:55:49;;;;;;;18.60;4.30;;;6.00;99.90;;;;;;4969570;28;20132;-62
2023/01/31 07:58:15;;;;;;;19.00;5.38;;;5.50;99.90;;;;;;4969657;28;20039;-61
2023/01/31 08:03:31;;;;;;;24.10;4.67;;;5.50;99.90;;;;;;4969484;28;20403;-62
2023/01/31 08:05:57;;;;;;;17.90;4.43;;;6.00;99.90;;;;;;4969827;28;20055;-62
2023/01/31 08:08:22;;;;;;;18.23;4.93;;;5.60;99.90;;;;;;4969384;28;20041;-62
2023/01/31 08:10:48;;;;;;;16.08;3.47;;;5.50;99.90;;;;;;4969012;28;20491;-62
2023/01/31 08:13:13;;;;;;;17.95;5.10;;;5.60;99.90;;;;;;4969381;28;20043;-61
2023/01/31 08:15:39;;;;;;;17.83;4.60;;;5.30;99.90;;;;;;4969198;28;20062;-62
2023/01/31 08:18:05;;;;;;;23.70;4.45;;;5.40;99.90;;;;;;4969566;28;20047;-60
2023/01/31 08:20:30;;;;;;;20.25;4.75;;;5.70;99.90;;;;;;4969763;28;20046;-62
2023/01/31 08:22:59;;;;;;;13.73;3.40;;;5.90;99.90;;;;;;4969443;28;20411;-62
2023/01/31 08:25:27;;;;;;;16.52;3.85;;;5.40;99.90;;;;;;4968691;28;20047;-61
2023/01/31 08:27:54;;;;;;;16.00;3.80;;;5.80;99.90;;;;;;4969372;28;20141;-61
2023/01/31 08:30:19;;;;;;;20.75;4.13;;;5.30;99.90;;;;;;4969982;28;20399;-62
2023/01/31 08:32:45;;;;;;;18.45;4.05;;;5.40;99.90;;;;;;4969258;28;20125;-61
2023/01/31 08:35:11;;;;;;;16.13;3.40;;;5.80;99.90;;;;;;4969254;28;20046;-56
2023/01/31 08:37:36;;;;;;;22.05;4.10;;;6.20;99.90;;;;;;4969269;28;20050;-62
2023/01/31 08:40:02;;;;;;;11.35;2.90;;;6.20;99.90;;;;;;4952438;28;20106;-62
2023/01/31 08:42:28;;;;;;;17.00;4.03;;;6.10;99.90;;;;;;4968341;28;20046;-62
2023/01/31 08:44:53;;;;;;;19.85;3.60;;;5.50;99.90;;;;;;4969580;28;20570;-60
2023/01/31 08:47:19;;;;;;;19.83;4.03;;;5.50;99.90;;;;;;4979979;28;20739;-62
2023/01/31 08:49:45;;;;;;;20.98;4.57;;;5.60;99.90;;;;;;4968694;28;20049;-62
2023/01/31 08:52:10;;;;;;;20.98;4.55;;;5.40;99.90;;;;;;4969205;28;20134;-63
2023/01/31 08:54:36;;;;;;;18.52;3.90;;;5.40;99.90;;;;;;4968998;28;20046;-61
2023/01/31 08:57:02;;;;;;;16.60;3.75;;;6.00;99.90;;;;;;4968203;28;20046;-62
2023/01/31 08:59:28;;;;;;;20.33;3.88;;;6.20;99.90;;;;;;4968901;28;20046;-62
2023/01/31 09:01:53;;;;;;;16.45;4.00;;;6.30;99.90;;;;;;4969051;28;20089;-57
2023/01/31 09:04:19;;;;;;;16.98;3.55;;;5.30;99.90;;;;;;4969184;28;20082;-61
2023/01/31 09:06:45;;;;;;;18.35;3.88;;;5.70;99.90;;;;;;4968691;28;20125;-62
2023/01/31 09:09:10;;;;;;;16.83;3.55;;;5.50;99.90;;;;;;4968268;28;20054;-62
2023/01/31 09:11:36;;;;;;;14.73;2.72;;;5.80;99.90;;;;;;4967549;28;20051;-61
2023/01/31 09:14:02;;;;;;;19.83;4.43;;;6.40;99.90;;;;;;4968882;28;20050;-62
2023/01/31 09:16:27;;;;;;;16.25;3.50;;;6.40;99.90;;;;;;4968080;28;20145;-63
2023/01/31 09:18:54;;;;;;;12.35;2.90;;;6.40;99.90;;;;;;4968894;28;20091;-61
2023/01/31 09:21:21;;;;;;;14.60;3.97;;;6.20;99.90;;;;;;4974950;28;20050;-62
2023/01/31 09:23:48;;;;;;;17.05;3.80;;;6.40;99.90;;;;;;4986556;28;20050;-62
2023/01/31 09:26:15;;;;;;;16.52;3.80;;;6.10;99.90;;;;;;4986146;28;20042;-62
2023/01/31 09:28:42;;;;;;;17.77;3.75;;;6.40;99.90;;;;;;4987401;28;20042;-62
2023/01/31 09:31:11;;;;;;;13.38;3.72;;;6.20;99.90;;;;;;4986982;28;20416;-63
2023/01/31 09:33:36;;;;;;;8.20;2.40;;;6.30;99.90;;;;;;4987105;28;20101;-61
2023/01/31 09:36:05;;;;;;;18.88;3.70;;;6.50;99.90;;;;;;4987405;28;20066;-61
2023/01/31 09:38:31;;;;;;;21.75;4.45;;;6.20;99.90;;;;;;4987015;28;20042;-62
2023/01/31 09:41:00;;;;;;;14.10;3.28;;;6.60;99.90;;;;;;4986979;28;20046;-61
2023/01/31 09:43:31;;;;;;;13.73;3.42;;;5.70;99.90;;;;;;4988058;28;20102;-61
2023/01/31 09:46:00;;;;;;;18.65;3.45;;;6.50;99.90;;;;;;4980691;28;20415;-58
2023/01/31 09:48:33;;;;;;;13.15;3.38;;;5.90;99.90;;;;;;4974553;28;20366;-62
2023/01/31 09:51:00;;;;;;;16.50;3.35;;;6.30;99.90;;;;;;4967821;28;20054;-62
2023/01/31 09:53:33;;;;;;;17.80;3.45;;;6.50;99.90;;;;;;4968029;28;20138;-62
2023/01/31 09:56:08;;;;;;;18.50;3.53;;;6.40;99.90;;;;;;4967063;28;20035;-63
2023/01/31 09:58:54;;;;;;;16.63;3.70;;;6.50;99.90;;;;;;4950196;28;20571;-60
2023/01/31 10:01:25;;;;;;;10.07;2.88;;;5.80;99.90;;;;;;4986859;28;20050;-61
2023/01/31 10:04:03;;;;;;;17.88;3.95;;;6.60;99.90;;;;;;4987452;28;20054;-59
2023/01/31 10:06:46;;;;;;;18.25;3.88;;;6.10;99.90;;;;;;4987338;28;20104;-61
2023/01/31 10:09:28;;;;;;;13.48;3.58;;;6.60;99.90;;;;;;4987096;28;20105;-61
2023/01/31 10:12:12;;;;;;;17.98;4.32;;;6.70;99.90;;;;;;4987080;28;20057;-63
2023/01/31 10:14:46;;;;;;;15.98;3.88;;;6.30;99.90;;;;;;4987623;28;20038;-62
2023/01/31 10:17:45;;;;;;;14.00;3.88;;;6.90;99.90;;;;;;4987264;28;20058;-62
2023/01/31 10:20:45;;;;;;;14.23;3.53;;;6.20;99.90;;;;;;4987678;28;20418;-66
2023/01/31 10:23:45;;;;;;;14.93;4.13;;;6.20;99.90;;;;;;4977153;28;20055;-58
2023/01/31 10:26:19;;;;;;;24.52;4.70;;;5.90;99.90;;;;;;4959268;28;20379;-63
2023/01/31 10:28:52;;;;;;;17.80;3.73;;;6.00;99.90;;;;;;4991135;28;20164;-63
2023/01/31 10:31:30;;;;;;;20.70;4.80;;;5.90;99.90;;;;;;4991501;28;20125;-63
2023/01/31 10:34:03;;;;;;;16.52;3.33;;;6.00;99.90;;;;;;4974037;28;20097;-63
2023/01/31 10:36:50;;;;;;;17.58;4.63;;;6.30;99.90;;;;;;4991432;28;20050;-63
2023/01/31 10:39:53;;;;;;;15.23;3.70;;;6.60;99.90;;;;;;4990843;28;20130;-63
2023/01/31 10:42:33;;;;;;;14.57;3.75;;;5.90;99.90;;;;;;4990954;28;20050;-63
2023/01/31 10:45:07;;;;;;;20.27;4.28;;;6.10;99.90;;;;;;4989370;28;20050;-63
2023/01/31 10:47:36;;;;;;;;;;;6.20;99.90;;;;;;4987169;28;20077;-63
2023/01/31 10:50:26;;;;;;;15.25;3.80;;;5.90;99.90;;;;;;4973255;28;19950;-64
2023/01/31 10:52:58;;;;;;;16.15;3.25;;;5.90;99.90;;;;;;4990487;28;20346;-63
2023/01/31 10:55:47;;;;;;;16.20;3.67;;;6.40;99.90;;;;;;4990119;28;20164;-62
2023/01/31 10:58:16;;;;;;;15.13;3.60;;;6.80;99.90;;;;;;4990342;28;20072;-61
2023/01/31 11:00:42;;;;;;;12.27;3.10;;;7.10;99.90;;;;;;5005367;28;20054;-64
2023/01/31 11:03:11;;;;;;;17.67;3.72;;;6.20;99.90;;;;;;4989754;28;20604;-60
2023/01/31 11:05:46;;;;;;;12.65;2.92;;;6.90;99.90;;;;;;4990579;28;20038;-66
2023/01/31 11:08:41;;;;;;;19.25;3.97;;;5.90;99.90;;;;;;4990243;28;20046;-62
2023/01/31 11:11:10;;;;;;;11.63;3.47;;;6.80;99.90;;;;;;4989492;28;20042;-65
2023/01/31 11:13:37;;;;;;;16.17;4.30;;;5.80;99.90;;;;;;4971719;28;20108;-63
2023/01/31 11:16:06;;;;;;;12.95;3.53;;;5.80;99.90;;;;;;4990026;28;20058;-64
2023/01/31 11:18:41;;;;;;;19.33;3.63;;;5.80;99.90;;;;;;4990825;28;20072;-62
2023/01/31 11:21:06;;;;;;;14.20;3.47;;;6.00;99.90;;;;;;4990144;28;20411;-63
2023/01/31 11:23:34;;;;;;;16.77;3.95;;;6.00;99.90;;;;;;4990220;28;20042;-59
2023/01/31 11:26:01;;;;;;;16.70;3.80;;;6.50;99.90;;;;;;4989984;28;20078;-63
2023/01/31 11:28:34;;;;;;;18.42;4.10;;;6.10;99.90;;;;;;4989685;28;20046;-64
2023/01/31 11:31:00;;;;;;;16.60;3.55;;;6.10;99.90;;;;;;4972783;28;20050;-63
2023/01/31 11:33:42;;;;;;;17.63;3.90;;;6.80;99.90;;;;;;4975177;28;20062;-63
2023/01/31 11:36:25;;;;;;;14.80;3.92;;;6.60;99.90;;;;;;4970310;28;20047;-61
2023/01/31 11:38:52;;;;;;;14.88;3.92;;;6.50;99.90;;;;;;4970073;28;20050;-61
2023/01/31 11:41:34;;;;;;;17.58;4.20;;;5.80;99.90;;;;;;4968573;28;20093;-61
2023/01/31 11:44:14;;;;;;;16.20;3.80;;;5.90;99.90;;;;;;4953415;28;20090;-62
2023/01/31 11:46:55;;;;;;;16.48;3.65;;;5.90;99.90;;;;;;4962589;28;20097;-61
2023/01/31 11:49:31;;;;;;;19.75;4.10;;;6.10;99.90;;;;;;4970243;28;20047;-61
2023/01/31 11:52:01;;;;;;;16.45;3.92;;;6.90;99.90;;;;;;4969943;28;20042;-61
2023/01/31 11:54:31;;;;;;;12.95;3.33;;;6.30;99.90;;;;;;4970266;28;20069;-62
2023/01/31 11:56:59;;;;;;;17.70;3.53;;;6.40;99.90;;;;;;4969044;28;20050;-61
2023/01/31 11:59:29;;;;;;;17.08;3.88;;;6.10;99.90;;;;;;4970007;28;20101;-61
2023/01/31 12:01:57;;;;;;;11.75;3.33;;;6.40;99.90;;;;;;4970105;28;20068;-60
2023/01/31 12:04:27;;;;;;;15.32;3.95;;;5.90;99.90;;;;;;4952158;28;20078;-61
2023/01/31 12:07:03;;;;;;;17.35;3.40;;;6.20;99.90;;;;;;4969968;28;20054;-61
2023/01/31 12:09:40;;;;;;;11.95;3.20;;;6.50;99.90;;;;;;4969869;28;20109;-61
2023/01/31 12:12:19;;;;;;;15.43;3.70;;;6.50;99.90;;;;;;4951951;28;20126;-62
2023/01/31 12:14:46;;;;;;;19.10;3.85;;;6.40;99.90;;;;;;4952180;28;20046;-60
2023/01/31 12:17:15;;;;;;;19.20;3.88;;;7.20;99.90;;;;;;4968822;28;20129;-61
2023/01/31 12:19:49;;;;;;;16.08;3.35;;;6.60;99.90;;;;;;4969571;28;20050;-61
2023/01/31 12:22:24;;;;;;;18.20;4.10;;;6.60;99.90;;;;;;4969140;28;20050;-61
2023/01/31 12:25:06;;;;;;;;;;;7.20;99.90;;;;;;4969273;28;20043;-61
2023/01/31 12:27:42;;;;;;;15.57;4.15;;;7.40;99.90;;;;;;4970031;28;19929;-62
2023/01/31 12:30:28;;;;;;;19.80;4.22;;;7.30;99.90;;;;;;4969234;28;20428;-64
2023/01/31 12:33:01;;;;;;;;;;;7.30;99.90;;;;;;4969214;28;20459;-64
2023/01/31 12:35:56;;;;;;;17.02;4.10;;;7.30;99.90;;;;;;4968224;28;19977;-63
2023/01/31 12:38:43;;;;;;;23.90;4.78;;;7.30;99.90;;;;;;4969090;28;20440;-63
2023/01/31 12:41:20;;;;;;;22.33;4.60;;;7.50;99.90;;;;;;4968277;28;20043;-60
2023/01/31 12:44:14;;;;;;;19.85;4.32;;;7.30;99.90;;;;;;4969102;28;20050;-63
2023/01/31 12:46:52;;;;;;;25.35;4.50;;;6.50;99.90;;;;;;4978439;28;20050;-61
2023/01/31 12:49:32;;;;;;;18.92;4.38;;;7.50;99.90;;;;;;4968917;28;20065;-62
2023/01/31 12:52:34;;;;;;;17.27;4.15;;;7.40;99.90;;;;;;4968751;28;20054;-64
2023/01/31 12:55:27;;;;;;;20.92;4.20;;;6.60;99.90;;;;;;4968058;28;20502;-61
2023/01/31 12:58:08;;;;;;;20.67;4.00;;;6.70;99.90;;;;;;4968354;28;20055;-62
2023/01/31 13:01:04;;;;;;;17.65;4.10;;;7.70;99.90;;;;;;4969256;28;20054;-64
2023/01/31 13:03:52;;;;;;;19.63;4.05;;;7.80;99.90;;;;;;4951249;28;20051;-64
2023/01/31 13:06:49;;;;;;;21.35;5.13;;;6.80;99.90;;;;;;4967890;28;20054;-63
2023/01/31 13:09:22;;;;;;;14.85;3.38;;;7.90;99.90;;;;;;4947908;28;20059;-64
2023/01/31 13:12:14;;;;;;;17.23;3.65;;;6.90;99.90;;;;;;4968130;28;20059;-59
2023/01/31 13:14:43;;;;;;;20.65;4.53;;;7.60;99.90;;;;;;4983902;28;20407;-61
2023/01/31 13:17:13;;;;;;;17.90;3.25;;;6.90;99.90;;;;;;4947702;28;20508;-64
2023/01/31 13:19:48;;;;;;;20.63;3.47;;;8.00;99.90;;;;;;4932418;29;20130;-62